Terminal Aerodrome Forecast
Issued by NWS

Home | Current Version | Previous Version | Text Only | Print | Product List | Glossary On
Versions: 1 2 3 4 5 6 7 8 9 10 11 12 13 14 15 16 17 18 19
000
FTUS44 KTSA 171100
TAFXNA
TAF
KXNA 171135Z 1712/1812 19005KT P6SM BKN006
      TEMPO 1712/1714 3SM BR BKN002
     FM171400 21008KT P6SM BKN012
     FM171700 21009KT P6SM SCT035
     FM180000 00000KT P6SM SCT040 BKN250 PROB30 1800/1806 3SM TSRA
      BKN025CB
     FM180800 00000KT 3SM BR SCT010=

USA.gov is the U.S. government's official web portal to all federal, state and local government web resources and services.